Time;durP1;ratioP1;P1;durP2;ratioP2;P2;SDS_P1;SDS_P2;PMS_P1;PMS_P2;Temp;Humidity;BMP_temperature;BMP_pressure;BME280_temperature;BME280_humidity;BME280_pressure;Samples;Min_cycle;Max_cycle;Signal;HPM_P1;HPM_P2
2023/03/26 00:01:04;;;;;;;75.38;6.65;;;10.20;88.30;;;;;;5043726;28;20162;-85
2023/03/26 00:03:32;;;;;;;78.88;7.13;;;10.20;90.10;;;;;;5025643;28;20193;-86
2023/03/26 00:06:02;;;;;;;73.50;5.90;;;10.10;90.50;;;;;;5043220;28;20184;-85
2023/03/26 00:08:37;;;;;;;82.93;6.57;;;10.10;90.90;;;;;;5044038;28;20173;-86
2023/03/26 00:11:05;;;;;;;72.55;7.03;;;10.10;91.40;;;;;;5025383;28;20177;-86
2023/03/26 00:13:36;;;;;;;75.63;6.43;;;10.10;91.10;;;;;;5042603;28;20227;-86
2023/03/26 00:16:05;;;;;;;73.45;6.88;;;10.10;89.50;;;;;;5025751;28;20165;-85
2023/03/26 00:18:34;;;;;;;75.63;5.75;;;10.10;91.00;;;;;;5024710;28;20176;-87
2023/03/26 00:21:06;;;;;;;77.63;7.35;;;10.10;87.20;;;;;;5041487;28;20592;-87
2023/03/26 00:23:34;;;;;;;78.43;6.68;;;10.10;87.00;;;;;;5040813;28;20208;-86
2023/03/26 00:26:01;;;;;;;73.15;7.43;;;10.10;86.00;;;;;;5040480;28;20165;-86
2023/03/26 00:28:28;;;;;;;73.53;7.03;;;10.10;86.80;;;;;;5023228;28;20211;-86
2023/03/26 00:30:59;;;;;;;79.97;6.57;;;10.10;84.10;;;;;;5023340;28;20173;-87
2023/03/26 00:33:26;;;;;;;80.15;7.13;;;10.00;87.20;;;;;;5040781;28;20196;-86
2023/03/26 00:35:59;;;;;;;85.47;7.68;;;10.10;86.90;;;;;;5023158;28;20165;-87
2023/03/26 00:38:27;;;;;;;84.20;8.80;;;10.00;88.90;;;;;;5023728;28;20223;-87
2023/03/26 00:41:04;;;;;;;81.70;7.07;;;9.90;92.10;;;;;;5023501;28;20165;-87
2023/03/26 00:43:32;;;;;;;73.75;6.95;;;9.90;93.80;;;;;;5023019;28;20197;-87
2023/03/26 00:45:59;;;;;;;78.43;6.88;;;9.80;93.30;;;;;;5024071;28;20169;-86
2023/03/26 00:48:42;;;;;;;83.30;7.18;;;9.70;93.90;;;;;;5024170;28;20174;-87
2023/03/26 00:51:10;;;;;;;77.25;6.68;;;9.70;95.80;;;;;;5041225;28;20208;-87
2023/03/26 00:53:37;;;;;;;76.70;7.38;;;9.60;98.10;;;;;;5023009;28;20291;-87
2023/03/26 00:56:06;;;;;;;75.90;6.80;;;9.50;99.90;;;;;;5040257;28;20169;-88
2023/03/26 00:58:35;;;;;;;73.22;7.40;;;9.60;98.80;;;;;;5039777;28;20166;-87
2023/03/26 01:01:04;;;;;;;73.07;8.18;;;9.40;99.90;;;;;;5022470;28;20169;-87
2023/03/26 01:03:33;;;;;;;83.15;8.15;;;9.40;99.90;;;;;;5021914;28;20186;-87
2023/03/26 01:06:21;;;;;;;77.30;8.38;;;9.30;99.90;;;;;;5039049;28;20157;-87
2023/03/26 01:08:53;;;;;;;79.18;8.80;;;9.30;99.90;;;;;;5037679;28;20648;-87
2023/03/26 01:11:24;;;;;;;84.90;8.93;;;9.20;99.90;;;;;;5022110;28;20193;-87
2023/03/26 01:13:54;;;;;;;74.65;9.20;;;9.20;99.90;;;;;;5021990;28;20610;-87
2023/03/26 01:16:28;;;;;;;73.55;8.15;;;9.20;99.90;;;;;;5021617;28;20224;-87
2023/03/26 01:18:57;;;;;;;71.28;7.90;;;9.10;99.90;;;;;;5039103;28;20204;-88
2023/03/26 01:21:29;;;;;;;73.13;7.63;;;9.00;99.90;;;;;;5039587;28;20153;-87
2023/03/26 01:24:04;;;;;;;75.53;7.40;;;8.90;99.90;;;;;;5021360;28;20193;-87
2023/03/26 01:26:48;;;;;;;77.45;7.18;;;8.90;99.90;;;;;;5039040;28;20168;-87
2023/03/26 01:29:40;;;;;;;73.75;7.88;;;8.80;99.90;;;;;;5021000;28;20173;-87
2023/03/26 01:32:22;;;;;;;77.93;9.40;;;8.70;99.90;;;;;;5038969;28;20158;-87
2023/03/26 01:35:03;;;;;;;82.20;9.70;;;8.60;99.90;;;;;;5022601;28;20158;-87
2023/03/26 01:38:09;;;;;;;71.03;10.73;;;8.50;99.90;;;;;;5041811;28;20606;-87
2023/03/26 01:40:45;;;;;;;73.65;12.80;;;8.50;99.90;;;;;;5024815;28;20169;-88
2023/03/26 01:43:32;;;;;;;73.57;13.73;;;8.50;99.90;;;;;;5043110;28;20671;-87
2023/03/26 01:46:02;;;;;;;80.95;16.92;;;8.50;99.90;;;;;;5043764;28;20225;-86
2023/03/26 01:48:38;;;;;;;79.82;18.15;;;8.50;99.90;;;;;;5027552;28;20176;-87
2023/03/26 01:51:05;;;;;;;76.30;17.00;;;8.50;99.90;;;;;;5027738;28;20555;-86
2023/03/26 01:53:34;;;;;;;79.80;19.65;;;8.50;99.90;;;;;;5026280;28;20205;-86
2023/03/26 01:56:12;;;;;;;71.63;14.85;;;8.50;99.90;;;;;;5027095;28;20276;-87
2023/03/26 01:58:56;;;;;;;87.63;21.15;;;8.50;99.90;;;;;;5026242;28;20161;-86
2023/03/26 02:01:36;;;;;;;82.53;20.23;;;8.50;99.90;;;;;;5044668;28;20149;-86
2023/03/26 02:04:25;;;;;;;87.35;21.00;;;8.50;99.90;;;;;;5044593;28;20185;-86
2023/03/26 02:07:06;;;;;;;76.00;18.55;;;8.60;99.90;;;;;;5044184;28;20165;-87
2023/03/26 02:09:38;;;;;;;82.05;21.08;;;8.70;99.90;;;;;;5045603;28;20562;-86
2023/03/26 02:12:07;;;;;;;82.93;18.50;;;8.70;99.90;;;;;;5044295;28;20162;-85
2023/03/26 02:14:33;;;;;;;82.65;21.40;;;8.80;99.90;;;;;;5025879;28;20180;-87
2023/03/26 02:16:59;;;;;;;81.18;22.08;;;8.80;99.90;;;;;;5044413;28;20153;-87
2023/03/26 02:19:25;;;;;;;84.38;24.48;;;8.80;99.90;;;;;;5026112;28;20165;-87
2023/03/26 02:21:51;;;;;;;77.43;20.47;;;8.90;99.90;;;;;;5042667;28;20172;-87
2023/03/26 02:24:18;;;;;;;75.20;19.77;;;8.90;99.90;;;;;;5043568;28;20605;-87
2023/03/26 02:26:44;;;;;;;77.35;18.27;;;8.90;99.90;;;;;;5042897;28;20181;-86
2023/03/26 02:29:18;;;;;;;79.75;23.25;;;8.90;99.90;;;;;;5025287;28;20165;-87
2023/03/26 02:31:43;;;;;;;85.20;22.88;;;8.90;99.90;;;;;;5043284;28;20547;-87
2023/03/26 02:34:09;;;;;;;78.30;21.23;;;8.90;99.90;;;;;;5042142;28;20197;-87
2023/03/26 02:36:35;;;;;;;81.20;20.77;;;9.00;99.90;;;;;;5025001;28;20165;-87
2023/03/26 02:39:02;;;;;;;77.27;23.97;;;9.00;99.90;;;;;;5042015;28;20158;-87
2023/03/26 02:41:27;;;;;;;80.10;23.67;;;9.00;99.90;;;;;;5042020;28;20412;-86
2023/03/26 02:43:53;;;;;;;82.87;21.33;;;9.00;99.90;;;;;;5041906;28;20248;-87
2023/03/26 02:46:19;;;;;;;83.20;22.57;;;9.00;99.90;;;;;;5023687;28;20173;-87
2023/03/26 02:48:44;;;;;;;80.10;23.53;;;9.00;99.90;;;;;;5042049;28;20169;-86
2023/03/26 02:51:10;;;;;;;84.07;22.93;;;9.00;99.90;;;;;;5041188;28;20435;-87
2023/03/26 02:53:38;;;;;;;82.47;22.93;;;9.00;99.90;;;;;;5023175;28;20680;-87
2023/03/26 02:56:04;;;;;;;80.10;27.90;;;9.00;99.90;;;;;;5040903;28;20185;-87
2023/03/26 02:58:30;;;;;;;79.63;22.15;;;9.00;99.90;;;;;;5040424;28;20165;-87
2023/03/26 03:00:55;;;;;;;79.80;22.90;;;9.00;99.90;;;;;;5040242;28;20292;-87
2023/03/26 03:03:26;;;;;;;78.73;22.73;;;9.00;99.90;;;;;;5022633;28;20212;-87
2023/03/26 03:05:53;;;;;;;80.85;22.88;;;9.00;99.90;;;;;;5039901;28;20476;-87
2023/03/26 03:08:20;;;;;;;81.20;22.05;;;9.00;99.90;;;;;;5040724;28;20165;-86
2023/03/26 03:11:11;;;;;;;79.45;21.45;;;9.00;99.90;;;;;;5040282;28;20706;-87
2023/03/26 03:13:36;;;;;;;79.90;20.13;;;9.00;99.90;;;;;;5034891;28;20702;-87
2023/03/26 03:16:02;;;;;;;86.50;22.77;;;9.00;99.90;;;;;;5040824;28;20162;-87
2023/03/26 03:18:28;;;;;;;79.50;24.47;;;9.00;99.90;;;;;;5040272;28;20188;-87
2023/03/26 03:20:54;;;;;;;76.80;21.90;;;9.00;99.90;;;;;;5040108;28;20262;-86
2023/03/26 03:23:20;;;;;;;78.90;23.03;;;9.10;99.90;;;;;;5022402;28;20219;-87
2023/03/26 03:25:46;;;;;;;77.90;23.03;;;9.10;99.90;;;;;;5040110;28;20166;-87
2023/03/26 03:28:12;;;;;;;78.43;20.53;;;9.10;99.90;;;;;;5040370;28;20403;-86
2023/03/26 03:30:38;;;;;;;82.65;23.63;;;9.10;99.90;;;;;;5039933;28;20411;-87
2023/03/26 03:33:04;;;;;;;82.03;24.30;;;9.10;99.90;;;;;;5040534;28;20193;-87
2023/03/26 03:35:32;;;;;;;78.60;22.00;;;9.00;99.90;;;;;;5040196;28;20404;-85
2023/03/26 03:37:59;;;;;;;78.80;25.10;;;9.00;99.90;;;;;;5040452;28;20521;-85
2023/03/26 03:40:28;;;;;;;83.88;23.77;;;9.10;99.90;;;;;;5024186;28;20189;-86
2023/03/26 03:42:54;;;;;;;77.63;23.38;;;9.10;99.90;;;;;;5040389;28;20209;-85
2023/03/26 03:45:19;;;;;;;74.90;22.30;;;9.10;99.90;;;;;;5023317;28;20691;-87
2023/03/26 03:47:45;;;;;;;80.43;23.23;;;9.10;99.90;;;;;;5022981;28;20420;-86
2023/03/26 03:50:11;;;;;;;73.67;22.70;;;9.00;99.90;;;;;;4978744;28;1309105;-87
2023/03/26 03:52:37;;;;;;;73.70;20.60;;;9.00;99.90;;;;;;5009049;28;20291;-87
2023/03/26 03:55:03;;;;;;;84.37;19.30;;;9.00;99.90;;;;;;5024710;28;20165;-86
2023/03/26 03:57:30;;;;;;;84.38;18.95;;;9.10;99.90;;;;;;5025381;28;20196;-85
2023/03/26 03:59:59;;;;;;;74.90;20.60;;;9.10;99.90;;;;;;5041231;28;20248;-86
2023/03/26 04:02:28;;;;;;;77.32;21.60;;;9.10;99.90;;;;;;5041530;28;20189;-86
2023/03/26 04:04:56;;;;;;;85.07;21.40;;;9.10;99.90;;;;;;5025186;28;20238;-86
2023/03/26 04:07:23;;;;;;;82.93;23.20;;;9.10;99.90;;;;;;5024344;28;20179;-86
2023/03/26 04:09:49;;;;;;;81.93;20.75;;;9.00;99.90;;;;;;5042066;28;20244;-86
2023/03/26 04:12:15;;;;;;;80.67;22.07;;;9.10;99.90;;;;;;5041883;28;20200;-86
2023/03/26 04:14:41;;;;;;;76.90;22.47;;;9.10;99.90;;;;;;5024297;28;20196;-86
2023/03/26 04:17:07;;;;;;;81.18;20.08;;;9.10;99.90;;;;;;5023868;28;20415;-86
2023/03/26 04:19:36;;;;;;;78.77;18.90;;;9.10;99.90;;;;;;5023362;28;20166;-86
2023/03/26 04:22:02;;;;;;;74.68;16.63;;;9.00;99.90;;;;;;5024249;28;20176;-86
2023/03/26 04:24:28;;;;;;;76.87;13.30;;;9.00;99.90;;;;;;5042322;28;20169;-86
2023/03/26 04:26:57;;;;;;;73.07;12.40;;;8.90;99.90;;;;;;5024425;28;20408;-86
2023/03/26 04:29:26;;;;;;;75.55;12.20;;;8.80;99.90;;;;;;5042213;28;20157;-87
2023/03/26 04:32:05;;;;;;;76.93;11.27;;;8.80;99.90;;;;;;5042540;28;20184;-86
2023/03/26 04:34:33;;;;;;;70.85;10.30;;;8.80;99.90;;;;;;5024771;28;20161;-86
2023/03/26 04:37:01;;;;;;;69.88;10.32;;;8.70;99.90;;;;;;5042095;28;20161;-86
2023/03/26 04:39:27;;;;;;;70.43;8.95;;;8.70;99.90;;;;;;5042537;28;20168;-86
2023/03/26 04:41:54;;;;;;;80.07;12.10;;;8.70;99.90;;;;;;5041881;28;20238;-86
2023/03/26 04:44:21;;;;;;;76.65;11.80;;;8.70;99.90;;;;;;5041917;28;20189;-87
2023/03/26 04:46:51;;;;;;;74.97;9.25;;;8.70;99.90;;;;;;5040647;28;20165;-86
2023/03/26 04:49:18;;;;;;;81.95;9.25;;;8.60;99.90;;;;;;5041184;28;20157;-86
2023/03/26 04:51:45;;;;;;;86.85;9.88;;;8.60;99.90;;;;;;5041448;28;20185;-87
2023/03/26 04:54:13;;;;;;;78.82;8.77;;;8.70;99.90;;;;;;5040928;28;20573;-87
2023/03/26 04:56:44;;;;;;;75.50;9.45;;;8.60;99.90;;;;;;5022848;28;20165;-87
2023/03/26 04:59:18;;;;;;;72.18;8.15;;;8.60;99.90;;;;;;5040104;28;20161;-87
2023/03/26 05:01:44;;;;;;;69.68;7.80;;;8.60;99.90;;;;;;5041279;28;20157;-87
2023/03/26 05:04:12;;;;;;;74.88;9.05;;;8.60;99.90;;;;;;5039442;28;20599;-87
2023/03/26 05:06:41;;;;;;;79.43;9.80;;;8.60;99.90;;;;;;5040085;28;20229;-87
2023/03/26 05:09:09;;;;;;;74.78;9.23;;;8.60;99.90;;;;;;5040023;28;20179;-87
2023/03/26 05:11:35;;;;;;;70.63;8.57;;;8.60;99.90;;;;;;5044709;28;20264;-86
2023/03/26 05:14:01;;;;;;;77.40;9.45;;;8.60;99.90;;;;;;5043935;28;20201;-87
2023/03/26 05:16:27;;;;;;;76.50;8.82;;;8.60;99.90;;;;;;5044164;28;20180;-87
2023/03/26 05:18:53;;;;;;;79.00;9.07;;;8.60;99.90;;;;;;5044531;28;20169;-86
2023/03/26 05:21:19;;;;;;;68.20;7.67;;;8.60;99.90;;;;;;5046530;28;20408;-86
2023/03/26 05:23:45;;;;;;;71.30;8.40;;;8.60;99.90;;;;;;5046005;28;20423;-86
2023/03/26 05:26:11;;;;;;;73.40;7.97;;;8.60;99.90;;;;;;5028708;28;20386;-86
2023/03/26 05:28:37;;;;;;;77.57;9.70;;;8.60;99.90;;;;;;5045834;28;20411;-86
2023/03/26 05:31:03;;;;;;;82.03;8.27;;;8.60;99.90;;;;;;5044477;28;20176;-86
2023/03/26 05:33:29;;;;;;;78.57;10.65;;;8.60;99.90;;;;;;5043253;28;20204;-85
2023/03/26 05:36:06;;;;;;;76.83;8.17;;;8.60;99.90;;;;;;5044607;28;20528;-86
2023/03/26 05:38:33;;;;;;;79.13;10.52;;;8.60;99.90;;;;;;5026352;28;20234;-86
2023/03/26 05:41:06;;;;;;;71.72;9.52;;;8.70;99.90;;;;;;5026882;28;20173;-86
2023/03/26 05:43:32;;;;;;;76.93;10.25;;;8.70;99.90;;;;;;5044501;28;20181;-86
2023/03/26 05:45:58;;;;;;;74.13;12.35;;;8.60;99.90;;;;;;5026485;28;20645;-86
2023/03/26 05:48:25;;;;;;;71.97;13.30;;;8.60;99.90;;;;;;5045350;28;20191;-86
2023/03/26 05:50:53;;;;;;;72.82;15.38;;;8.60;99.90;;;;;;5099061;23;20495;-83
2023/03/26 05:53:19;;;;;;;76.10;18.30;;;8.50;99.90;;;;;;5002628;28;20201;-82
2023/03/26 05:55:49;;;;;;;74.75;21.25;;;8.50;99.90;;;;;;5003079;28;20640;-82
2023/03/26 05:58:15;;;;;;;75.85;22.27;;;8.50;99.90;;;;;;5021162;28;20162;-82
2023/03/26 06:00:42;;;;;;;83.40;20.83;;;8.50;99.90;;;;;;5020450;28;20223;-82
2023/03/26 06:03:11;;;;;;;75.20;19.55;;;8.40;99.90;;;;;;5020946;28;20188;-82
2023/03/26 06:05:38;;;;;;;77.28;19.08;;;8.40;99.90;;;;;;5020307;28;20180;-82
2023/03/26 06:08:04;;;;;;;76.68;18.85;;;8.40;99.90;;;;;;5021043;28;20162;-82
2023/03/26 06:10:30;;;;;;;77.10;18.25;;;8.30;99.90;;;;;;5022084;28;20249;-82
2023/03/26 06:12:56;;;;;;;79.03;18.45;;;8.30;99.90;;;;;;5005310;28;20672;-82
2023/03/26 06:15:22;;;;;;;75.50;16.90;;;8.30;99.90;;;;;;5023775;28;20177;-82
2023/03/26 06:17:48;;;;;;;73.90;17.88;;;8.30;99.90;;;;;;5024295;28;20648;-82
2023/03/26 06:20:14;;;;;;;75.67;19.20;;;8.30;99.90;;;;;;5006582;28;20250;-82
2023/03/26 06:22:40;;;;;;;75.85;17.00;;;8.40;99.90;;;;;;5005361;28;20220;-82
2023/03/26 06:25:06;;;;;;;79.15;20.40;;;8.40;99.90;;;;;;5019413;28;20166;-82
2023/03/26 06:27:32;;;;;;;76.25;17.73;;;8.40;99.90;;;;;;5022662;28;20572;-82
2023/03/26 06:29:58;;;;;;;77.10;18.03;;;8.40;99.90;;;;;;5002699;28;20220;-82
2023/03/26 06:32:23;;;;;;;79.57;17.83;;;8.40;99.90;;;;;;5021769;28;20592;-82
2023/03/26 06:34:49;;;;;;;76.50;13.80;;;8.40;99.90;;;;;;5022176;28;20192;-82
2023/03/26 06:37:15;;;;;;;79.17;13.93;;;8.40;99.90;;;;;;5019074;28;20166;-82
2023/03/26 06:39:41;;;;;;;85.65;13.30;;;8.40;99.90;;;;;;5001728;28;20176;-81
2023/03/26 06:42:07;;;;;;;80.13;11.53;;;8.40;99.90;;;;;;5018813;28;20214;-81
2023/03/26 06:44:33;;;;;;;71.90;11.50;;;8.40;99.90;;;;;;5000965;28;20216;-82
2023/03/26 06:46:59;;;;;;;73.73;11.70;;;8.40;99.90;;;;;;5002841;28;20625;-82
2023/03/26 06:49:24;;;;;;;75.83;12.10;;;8.40;99.90;;;;;;5019808;28;20534;-81
2023/03/26 06:51:50;;;;;;;81.47;12.10;;;8.40;99.90;;;;;;5020461;28;20456;-82
2023/03/26 06:54:16;;;;;;;77.87;11.20;;;8.40;99.90;;;;;;5020066;28;20986;-82
2023/03/26 06:56:42;;;;;;;81.63;10.80;;;8.50;99.90;;;;;;5018786;28;20405;-81
2023/03/26 06:59:08;;;;;;;79.50;13.23;;;8.50;99.90;;;;;;5018854;28;20454;-81
2023/03/26 07:01:34;;;;;;;85.28;14.90;;;8.60;99.90;;;;;;5018621;28;20166;-81
2023/03/26 07:03:59;;;;;;;77.73;13.80;;;8.60;99.90;;;;;;5002087;28;20193;-81
2023/03/26 07:06:25;;;;;;;80.43;19.00;;;8.60;99.90;;;;;;5017518;28;20616;-81
2023/03/26 07:08:51;;;;;;;77.80;18.77;;;8.70;99.90;;;;;;5016515;28;20165;-81
2023/03/26 07:11:18;;;;;;;75.53;16.90;;;8.70;99.90;;;;;;5017908;28;20165;-81
2023/03/26 07:13:46;;;;;;;75.13;20.05;;;8.70;99.90;;;;;;5017726;28;20196;-81
2023/03/26 07:16:12;;;;;;;85.47;15.45;;;8.60;99.90;;;;;;5017454;28;20158;-81
2023/03/26 07:18:38;;;;;;;79.50;13.00;;;8.60;99.90;;;;;;5019094;28;20636;-81
2023/03/26 07:21:04;;;;;;;79.53;12.80;;;8.50;99.90;;;;;;5018722;28;20186;-81
2023/03/26 07:23:30;;;;;;;77.90;14.38;;;8.50;99.90;;;;;;5017050;28;20194;-80
2023/03/26 07:25:56;;;;;;;77.87;13.10;;;8.60;99.90;;;;;;5018707;28;20166;-81
2023/03/26 07:28:46;;;;;;;81.10;13.80;;;8.50;99.90;;;;;;5017468;28;20417;-81
2023/03/26 07:31:20;;;;;;;78.50;12.18;;;8.50;99.90;;;;;;5018230;28;20161;-80
2023/03/26 07:33:52;;;;;;;78.72;12.70;;;8.40;99.90;;;;;;5018101;28;20691;-80
2023/03/26 07:36:21;;;;;;;76.22;12.93;;;8.50;99.90;;;;;;5017862;28;20150;-80
2023/03/26 07:38:54;;;;;;;75.45;15.15;;;8.50;99.90;;;;;;5017321;28;20176;-80
2023/03/26 07:41:29;;;;;;;76.10;14.63;;;8.50;99.90;;;;;;5017596;28;20147;-80
2023/03/26 07:44:05;;;;;;;79.55;15.30;;;8.50;99.90;;;;;;5017350;28;20189;-81
2023/03/26 07:46:33;;;;;;;72.68;13.93;;;8.50;99.90;;;;;;5017040;28;20164;-81
2023/03/26 07:49:00;;;;;;;73.93;14.93;;;8.60;99.90;;;;;;5017198;28;20166;-81
2023/03/26 07:51:27;;;;;;;74.70;14.65;;;8.50;99.90;;;;;;5016778;28;20696;-81
2023/03/26 07:53:54;;;;;;;78.10;14.13;;;8.60;99.90;;;;;;4998978;28;20206;-80
2023/03/26 07:56:58;;;;;;;80.10;15.57;;;8.60;99.90;;;;;;4999333;28;20181;-80
2023/03/26 07:59:27;;;;;;;85.82;16.95;;;8.50;99.90;;;;;;4998074;28;20268;-81
2023/03/26 08:02:15;;;;;;;78.75;13.90;;;8.50;99.90;;;;;;4999006;28;20199;-80
2023/03/26 08:04:56;;;;;;;81.97;16.65;;;8.50;99.90;;;;;;4999116;28;20174;-80
2023/03/26 08:07:21;;;;;;;76.95;15.73;;;8.40;99.90;;;;;;4998562;28;20174;-81
2023/03/26 08:09:57;;;;;;;71.67;13.77;;;8.40;99.90;;;;;;5016432;28;20173;-81
2023/03/26 08:13:05;;;;;;;72.68;13.68;;;8.40;99.90;;;;;;5015691;28;20557;-80
2023/03/26 08:15:42;;;;;;;78.53;15.45;;;8.40;99.90;;;;;;5009450;28;20235;-81
2023/03/26 08:18:43;;;;;;;72.20;16.60;;;8.40;99.90;;;;;;5018418;28;20146;-81
2023/03/26 08:21:20;;;;;;;77.78;12.80;;;8.40;99.90;;;;;;4956709;29;20254;-80
2023/03/26 08:23:54;;;;;;;72.80;13.45;;;8.40;99.90;;;;;;4990717;28;20620;-81
2023/03/26 08:26:54;;;;;;;72.47;15.77;;;8.50;99.90;;;;;;4999998;28;20609;-80
2023/03/26 08:29:22;;;;;;;72.85;14.88;;;8.50;99.90;;;;;;5017659;28;20161;-81
2023/03/26 08:31:50;;;;;;;76.57;15.80;;;8.50;99.90;;;;;;5017561;28;20161;-81
2023/03/26 08:34:16;;;;;;;76.72;18.50;;;8.50;99.90;;;;;;5017433;28;20198;-80
2023/03/26 08:36:42;;;;;;;74.95;18.13;;;8.60;99.90;;;;;;5000553;28;20188;-81
2023/03/26 08:39:08;;;;;;;73.80;15.53;;;8.60;99.90;;;;;;4998832;28;20169;-81
2023/03/26 08:41:45;;;;;;;78.10;17.90;;;8.60;99.90;;;;;;5017717;28;20162;-80
2023/03/26 08:44:48;;;;;;;82.53;15.00;;;8.50;99.90;;;;;;5018605;28;20268;-80
2023/03/26 08:47:51;;;;;;;72.43;14.75;;;8.50;99.90;;;;;;5007096;28;20176;-80
2023/03/26 08:50:32;;;;;;;68.95;12.50;;;8.50;99.90;;;;;;5005259;28;20180;-81
2023/03/26 08:53:32;;;;;;;73.10;15.50;;;8.40;99.90;;;;;;5003799;28;20224;-80
2023/03/26 08:56:33;;;;;;;71.25;14.98;;;8.30;99.90;;;;;;5003985;28;20630;-80
2023/03/26 08:59:18;;;;;;;73.88;13.82;;;8.30;99.90;;;;;;4998326;28;20228;-80
2023/03/26 09:01:46;;;;;;;78.15;15.65;;;8.30;99.90;;;;;;5004012;28;20312;-80
2023/03/26 09:04:34;;;;;;;81.47;18.20;;;8.30;99.90;;;;;;5005418;28;20213;-80
2023/03/26 09:07:27;;;;;;;80.28;16.35;;;8.30;99.90;;;;;;5021728;28;20166;-80
2023/03/26 09:10:11;;;;;;;76.88;16.85;;;8.40;99.90;;;;;;5019342;28;20173;-80
2023/03/26 09:12:45;;;;;;;86.07;16.83;;;8.40;99.90;;;;;;5020450;28;20200;-80
2023/03/26 09:15:19;;;;;;;76.60;14.95;;;8.40;99.90;;;;;;5020362;28;20185;-80
2023/03/26 09:18:00;;;;;;;70.93;14.60;;;8.40;99.90;;;;;;5002107;28;20161;-80
2023/03/26 09:21:11;;;;;;;77.30;16.80;;;8.40;99.90;;;;;;5019908;28;20521;-81
2023/03/26 09:23:42;;;;;;;75.43;15.60;;;8.30;99.90;;;;;;5016774;28;20202;-81
2023/03/26 09:26:23;;;;;;;73.63;19.35;;;8.40;99.90;;;;;;5020977;28;20173;-81
2023/03/26 09:29:26;;;;;;;71.13;16.70;;;8.40;99.90;;;;;;5022832;28;20158;-82
2023/03/26 09:32:19;;;;;;;70.15;13.90;;;8.30;99.90;;;;;;5003179;28;20177;-81
2023/03/26 09:35:35;;;;;;;70.53;13.15;;;8.40;99.90;;;;;;5021461;28;20158;-81
2023/03/26 09:38:29;;;;;;;73.00;15.38;;;8.30;99.90;;;;;;4960986;29;20172;-81
2023/03/26 09:41:03;;;;;;;74.72;15.75;;;8.30;99.90;;;;;;4943648;29;20167;-82
2023/03/26 09:43:57;;;;;;;69.88;17.67;;;8.30;99.90;;;;;;5010108;28;20228;-82
2023/03/26 09:46:47;;;;;;;73.80;19.92;;;8.30;99.90;;;;;;5005001;28;20166;-81
2023/03/26 09:49:50;;;;;;;76.10;23.25;;;8.30;99.90;;;;;;5004298;28;20690;-81
2023/03/26 09:52:43;;;;;;;72.78;19.83;;;8.30;99.90;;;;;;5021201;28;20236;-82
2023/03/26 09:55:30;;;;;;;74.97;25.52;;;8.30;99.90;;;;;;5003152;28;20172;-81
2023/03/26 09:58:34;;;;;;;75.03;23.77;;;8.30;99.90;;;;;;5021678;28;20174;-82
2023/03/26 10:01:24;;;;;;;75.43;17.55;;;8.30;99.90;;;;;;4988153;28;20180;-82
2023/03/26 10:03:50;;;;;;;74.32;19.55;;;8.20;99.90;;;;;;5003646;28;20292;-81
2023/03/26 10:06:53;;;;;;;74.03;25.00;;;8.10;99.90;;;;;;5003598;28;20197;-80
2023/03/26 10:09:25;;;;;;;74.68;23.77;;;8.20;99.90;;;;;;5021089;28;20169;-82
2023/03/26 10:11:59;;;;;;;78.07;28.45;;;8.20;99.90;;;;;;5003994;28;20161;-82
2023/03/26 10:14:40;;;;;;;77.07;24.55;;;8.30;99.90;;;;;;5004484;28;20170;-82
2023/03/26 10:17:41;;;;;;;75.22;26.83;;;8.40;99.90;;;;;;5023117;28;20184;-81
2023/03/26 10:20:36;;;;;;;73.97;24.33;;;8.60;99.90;;;;;;5003583;28;20185;-81
2023/03/26 10:23:08;;;;;;;79.15;23.48;;;8.60;99.90;;;;;;5005634;28;20202;-82
2023/03/26 10:25:54;;;;;;;73.43;21.95;;;8.60;99.90;;;;;;5022412;28;20166;-81
2023/03/26 10:28:42;;;;;;;75.43;22.48;;;8.80;99.90;;;;;;4992304;28;20235;-82
2023/03/26 10:31:58;;;;;;;74.60;21.65;;;8.90;99.90;;;;;;5002773;28;20168;-81
2023/03/26 10:34:48;;;;;;;75.78;18.95;;;8.90;99.90;;;;;;4996489;28;20224;-81
2023/03/26 10:37:26;;;;;;;73.88;21.02;;;9.00;99.90;;;;;;5021847;28;20158;-82
2023/03/26 10:40:14;;;;;;;75.45;16.17;;;9.10;99.90;;;;;;5022206;28;20241;-83
2023/03/26 10:43:01;;;;;;;71.80;17.40;;;8.90;99.90;;;;;;5025141;28;20190;-83
2023/03/26 10:45:44;;;;;;;75.18;18.90;;;8.90;99.90;;;;;;5022789;28;20150;-83
2023/03/26 10:48:18;;;;;;;72.10;16.77;;;8.90;99.90;;;;;;5024092;28;20569;-83
2023/03/26 10:50:50;;;;;;;75.22;15.80;;;9.00;99.90;;;;;;5022094;28;20192;-82
2023/03/26 10:53:46;;;;;;;72.32;17.33;;;9.10;99.90;;;;;;5019917;28;20189;-82
2023/03/26 10:56:33;;;;;;;76.85;20.63;;;9.20;99.90;;;;;;5020208;28;20154;-82
2023/03/26 10:59:11;;;;;;;70.22;17.52;;;9.10;99.90;;;;;;5003776;28;20230;-82
2023/03/26 11:01:49;;;;;;;79.63;22.98;;;9.20;99.90;;;;;;5022498;28;20165;-82
2023/03/26 11:04:24;;;;;;;77.65;17.77;;;9.10;99.90;;;;;;5021222;28;20200;-82
2023/03/26 11:07:30;;;;;;;77.05;19.27;;;9.20;99.90;;;;;;5003687;28;20185;-82
2023/03/26 11:10:13;;;;;;;72.00;17.23;;;9.30;99.90;;;;;;4985465;28;20685;-81
2023/03/26 11:13:02;;;;;;;72.32;17.00;;;9.50;99.90;;;;;;5002571;28;20728;-81
2023/03/26 11:15:44;;;;;;;72.28;16.80;;;9.60;99.90;;;;;;5020570;28;20157;-82
2023/03/26 11:18:48;;;;;;;80.55;15.35;;;9.50;99.90;;;;;;5019671;28;20610;-81
2023/03/26 11:21:44;;;;;;;72.05;15.07;;;9.60;99.90;;;;;;5001582;28;20165;-81
2023/03/26 11:24:44;;;;;;;73.00;19.33;;;9.70;99.90;;;;;;5003151;28;20589;-81
2023/03/26 11:27:22;;;;;;;71.60;17.17;;;9.60;99.90;;;;;;5020714;28;20157;-81
2023/03/26 11:30:16;;;;;;;72.85;17.23;;;9.70;99.90;;;;;;5021581;28;20224;-82
2023/03/26 11:32:47;;;;;;;70.75;14.80;;;9.70;99.90;;;;;;5004196;28;20284;-81
2023/03/26 11:35:33;;;;;;;72.57;21.75;;;9.80;99.90;;;;;;5020627;28;20162;-81
2023/03/26 11:38:05;;;;;;;74.95;22.02;;;9.80;99.90;;;;;;5000655;28;20177;-81
2023/03/26 11:40:40;;;;;;;72.72;18.75;;;9.70;99.90;;;;;;5019154;28;20150;-82
2023/03/26 11:43:09;;;;;;;72.70;20.05;;;9.80;99.90;;;;;;5001790;28;20212;-81
2023/03/26 11:45:38;;;;;;;72.82;18.13;;;9.80;99.90;;;;;;5002044;28;20189;-82
2023/03/26 11:48:30;;;;;;;72.60;20.48;;;9.80;99.90;;;;;;4985861;28;20193;-82
2023/03/26 11:51:17;;;;;;;72.80;19.27;;;9.90;99.90;;;;;;5120258;23;20307;-80
2023/03/26 11:53:45;;;;;;;71.68;18.48;;;10.00;99.90;;;;;;5016719;28;20181;-81
2023/03/26 11:56:34;;;;;;;72.03;17.25;;;10.00;99.90;;;;;;4998983;28;20170;-80
2023/03/26 11:59:11;;;;;;;71.22;16.65;;;10.10;99.90;;;;;;4999682;28;20205;-80
2023/03/26 12:02:09;;;;;;;72.78;17.50;;;10.10;99.90;;;;;;5016865;28;20173;-80
2023/03/26 12:04:44;;;;;;;72.43;17.75;;;10.30;99.90;;;;;;4983762;28;20220;-80
2023/03/26 12:07:51;;;;;;;72.82;21.17;;;10.30;99.90;;;;;;4998074;28;20181;-80
2023/03/26 12:10:36;;;;;;;72.38;19.40;;;10.40;99.90;;;;;;4993401;28;20182;-80
2023/03/26 12:13:27;;;;;;;74.45;19.77;;;10.50;99.90;;;;;;4998388;28;20185;-80
2023/03/26 12:16:00;;;;;;;71.85;21.88;;;10.70;99.90;;;;;;5015492;28;20150;-80
2023/03/26 12:18:35;;;;;;;72.47;21.10;;;10.50;99.90;;;;;;5016035;28;20146;-80
2023/03/26 12:21:17;;;;;;;70.60;16.35;;;10.60;99.90;;;;;;5016271;28;20156;-80
2023/03/26 12:24:08;;;;;;;69.60;12.15;;;10.70;99.90;;;;;;5016426;28;20202;-80
2023/03/26 12:26:45;;;;;;;68.80;9.98;;;10.70;99.90;;;;;;4998391;28;20186;-80
2023/03/26 12:29:13;;;;;;;67.90;9.75;;;10.80;99.90;;;;;;5016183;28;20181;-80
2023/03/26 12:32:15;;;;;;;74.60;10.55;;;10.70;99.90;;;;;;5016627;28;20173;-80
2023/03/26 12:34:40;;;;;;;67.63;6.60;;;10.90;99.90;;;;;;5014973;28;20157;-80
2023/03/26 12:37:36;;;;;;;64.60;4.60;;;10.90;99.90;;;;;;4999073;28;20204;-81
2023/03/26 12:40:25;;;;;;;64.88;6.55;;;11.00;99.90;;;;;;5016486;28;20401;-81
2023/03/26 12:42:53;;;;;;;64.18;4.72;;;11.00;99.90;;;;;;5016246;28;20197;-81
2023/03/26 12:45:35;;;;;;;64.82;6.32;;;10.80;99.90;;;;;;5015880;28;20169;-80
2023/03/26 12:48:01;;;;;;;65.20;6.95;;;10.60;99.90;;;;;;5015964;28;20145;-80
2023/03/26 12:50:41;;;;;;;64.13;5.05;;;10.60;99.90;;;;;;5015942;28;20607;-81
2023/03/26 12:53:25;;;;;;;65.35;7.40;;;10.60;99.90;;;;;;5015859;28;20197;-81
2023/03/26 12:56:00;;;;;;;65.72;6.15;;;10.40;99.90;;;;;;5016169;28;20617;-80
2023/03/26 12:58:40;;;;;;;66.75;9.23;;;10.10;99.90;;;;;;5016395;28;20177;-81
2023/03/26 13:01:18;;;;;;;66.38;9.48;;;10.00;99.90;;;;;;5015589;28;20614;-80
2023/03/26 13:04:09;;;;;;;65.00;6.88;;;9.90;99.90;;;;;;5015221;28;20669;-80
2023/03/26 13:06:56;;;;;;;64.43;6.00;;;9.90;99.90;;;;;;5015699;28;20150;-80
2023/03/26 13:09:36;;;;;;;65.53;6.80;;;9.80;99.90;;;;;;5015600;28;20241;-80
2023/03/26 13:12:20;;;;;;;65.85;7.88;;;9.80;99.90;;;;;;5015109;28;20514;-80
2023/03/26 13:15:03;;;;;;;65.45;7.57;;;9.70;99.90;;;;;;5015419;28;20181;-80
2023/03/26 13:17:43;;;;;;;65.50;7.60;;;9.70;99.90;;;;;;5014300;28;20176;-80